sensor_id;sensor_type;location;lat;lon;timestamp;temperature;humidity
68511;SHT31;55512;50.102;19.958;2022-07-23T00:01:28;28.43;45.99
68511;SHT31;55512;50.102;19.958;2022-07-23T00:03:54;28.29;46.33
68511;SHT31;55512;50.102;19.958;2022-07-23T00:06:20;28.19;46.60
68511;SHT31;55512;50.102;19.958;2022-07-23T00:08:47;28.17;46.69
68511;SHT31;55512;50.102;19.958;2022-07-23T00:11:13;28.17;46.59
68511;SHT31;55512;50.102;19.958;2022-07-23T00:13:38;28.17;46.60
68511;SHT31;55512;50.102;19.958;2022-07-23T00:16:04;28.12;46.81
68511;SHT31;55512;50.102;19.958;2022-07-23T00:18:31;27.97;47.22
68511;SHT31;55512;50.102;19.958;2022-07-23T00:20:57;27.94;47.21
68511;SHT31;55512;50.102;19.958;2022-07-23T00:23:22;27.87;47.19
68511;SHT31;55512;50.102;19.958;2022-07-23T00:25:50;27.85;47.09
68511;SHT31;55512;50.102;19.958;2022-07-23T00:28:17;27.84;47.03
68511;SHT31;55512;50.102;19.958;2022-07-23T00:30:43;27.63;47.42
68511;SHT31;55512;50.102;19.958;2022-07-23T00:33:10;27.60;47.33
68511;SHT31;55512;50.102;19.958;2022-07-23T00:35:37;27.49;47.47
68511;SHT31;55512;50.102;19.958;2022-07-23T00:38:05;27.47;47.44
68511;SHT31;55512;50.102;19.958;2022-07-23T00:40:34;27.39;47.61
68511;SHT31;55512;50.102;19.958;2022-07-23T00:43:01;27.37;47.63
68511;SHT31;55512;50.102;19.958;2022-07-23T00:45:28;27.38;47.62
68511;SHT31;55512;50.102;19.958;2022-07-23T00:47:54;27.43;47.59
68511;SHT31;55512;50.102;19.958;2022-07-23T00:50:20;27.38;47.60
68511;SHT31;55512;50.102;19.958;2022-07-23T00:52:46;27.35;47.65
68511;SHT31;55512;50.102;19.958;2022-07-23T00:55:12;27.29;47.72
68511;SHT31;55512;50.102;19.958;2022-07-23T00:57:40;27.26;47.80
68511;SHT31;55512;50.102;19.958;2022-07-23T01:00:08;27.24;47.80
68511;SHT31;55512;50.102;19.958;2022-07-23T01:02:40;27.29;47.66
68511;SHT31;55512;50.102;19.958;2022-07-23T01:05:07;27.30;47.62
68511;SHT31;55512;50.102;19.958;2022-07-23T01:07:34;27.30;47.59
68511;SHT31;55512;50.102;19.958;2022-07-23T01:10:01;27.28;47.52
68511;SHT31;55512;50.102;19.958;2022-07-23T01:12:27;27.27;47.43
68511;SHT31;55512;50.102;19.958;2022-07-23T01:14:54;27.25;47.43
68511;SHT31;55512;50.102;19.958;2022-07-23T01:17:21;27.25;47.56
68511;SHT31;55512;50.102;19.958;2022-07-23T01:19:47;27.23;48.30
68511;SHT31;55512;50.102;19.958;2022-07-23T01:22:12;27.17;48.56
68511;SHT31;55512;50.102;19.958;2022-07-23T01:24:42;27.07;48.65
68511;SHT31;55512;50.102;19.958;2022-07-23T01:27:07;27.00;48.49
68511;SHT31;55512;50.102;19.958;2022-07-23T01:29:33;26.93;48.38
68511;SHT31;55512;50.102;19.958;2022-07-23T01:31:58;26.91;48.54
68511;SHT31;55512;50.102;19.958;2022-07-23T01:34:24;26.82;48.70
68511;SHT31;55512;50.102;19.958;2022-07-23T01:36:49;26.82;48.55
68511;SHT31;55512;50.102;19.958;2022-07-23T01:39:14;26.72;48.80
68511;SHT31;55512;50.102;19.958;2022-07-23T01:41:40;26.74;48.81
68511;SHT31;55512;50.102;19.958;2022-07-23T01:44:06;26.65;49.03
68511;SHT31;55512;50.102;19.958;2022-07-23T01:46:32;26.64;49.10
68511;SHT31;55512;50.102;19.958;2022-07-23T01:48:57;26.68;49.02
68511;SHT31;55512;50.102;19.958;2022-07-23T01:51:23;26.60;49.14
68511;SHT31;55512;50.102;19.958;2022-07-23T01:53:49;26.58;49.12
68511;SHT31;55512;50.102;19.958;2022-07-23T01:56:15;26.48;49.29
68511;SHT31;55512;50.102;19.958;2022-07-23T01:58:40;26.46;49.34
68511;SHT31;55512;50.102;19.958;2022-07-23T02:01:06;26.47;49.32
68511;SHT31;55512;50.102;19.958;2022-07-23T02:03:31;26.44;49.42
68511;SHT31;55512;50.102;19.958;2022-07-23T02:05:57;26.38;49.58
68511;SHT31;55512;50.102;19.958;2022-07-23T02:08:22;26.47;49.42
68511;SHT31;55512;50.102;19.958;2022-07-23T02:10:48;26.46;49.41
68511;SHT31;55512;50.102;19.958;2022-07-23T02:13:16;26.45;49.43
68511;SHT31;55512;50.102;19.958;2022-07-23T02:15:42;26.42;49.53
68511;SHT31;55512;50.102;19.958;2022-07-23T02:18:08;26.43;49.52
68511;SHT31;55512;50.102;19.958;2022-07-23T02:20:34;26.34;49.79
68511;SHT31;55512;50.102;19.958;2022-07-23T02:22:59;26.29;49.91
68511;SHT31;55512;50.102;19.958;2022-07-23T02:25:25;26.27;49.97
68511;SHT31;55512;50.102;19.958;2022-07-23T02:27:51;26.24;50.02
68511;SHT31;55512;50.102;19.958;2022-07-23T02:30:16;26.18;50.12
68511;SHT31;55512;50.102;19.958;2022-07-23T02:32:42;26.10;50.37
68511;SHT31;55512;50.102;19.958;2022-07-23T02:35:07;26.10;50.31
68511;SHT31;55512;50.102;19.958;2022-07-23T02:37:33;26.03;50.43
68511;SHT31;55512;50.102;19.958;2022-07-23T02:39:58;26.05;50.38
68511;SHT31;55512;50.102;19.958;2022-07-23T02:42:24;26.10;50.27
68511;SHT31;55512;50.102;19.958;2022-07-23T02:44:50;26.09;50.26
68511;SHT31;55512;50.102;19.958;2022-07-23T02:47:16;26.06;50.20
68511;SHT31;55512;50.102;19.958;2022-07-23T02:49:42;26.04;50.00
68511;SHT31;55512;50.102;19.958;2022-07-23T02:52:08;25.84;50.29
68511;SHT31;55512;50.102;19.958;2022-07-23T02:54:35;25.73;50.41
68511;SHT31;55512;50.102;19.958;2022-07-23T02:57:02;25.51;50.89
68511;SHT31;55512;50.102;19.958;2022-07-23T02:59:28;25.24;51.57
68511;SHT31;55512;50.102;19.958;2022-07-23T03:01:54;25.17;51.70
68511;SHT31;55512;50.102;19.958;2022-07-23T03:04:19;25.11;51.76
68511;SHT31;55512;50.102;19.958;2022-07-23T03:06:45;24.98;51.94
68511;SHT31;55512;50.102;19.958;2022-07-23T03:09:10;24.82;52.30
68511;SHT31;55512;50.102;19.958;2022-07-23T03:11:36;24.67;52.67
68511;SHT31;55512;50.102;19.958;2022-07-23T03:14:01;24.51;53.07
68511;SHT31;55512;50.102;19.958;2022-07-23T03:16:27;24.30;53.49
68511;SHT31;55512;50.102;19.958;2022-07-23T03:18:53;24.22;53.71
68511;SHT31;55512;50.102;19.958;2022-07-23T03:21:18;24.13;53.88
68511;SHT31;55512;50.102;19.958;2022-07-23T03:23:44;24.17;53.84
68511;SHT31;55512;50.102;19.958;2022-07-23T03:26:09;24.08;54.13
68511;SHT31;55512;50.102;19.958;2022-07-23T03:28:34;24.06;54.20
68511;SHT31;55512;50.102;19.958;2022-07-23T03:31:00;24.06;54.38
68511;SHT31;55512;50.102;19.958;2022-07-23T03:33:26;24.07;54.45
68511;SHT31;55512;50.102;19.958;2022-07-23T03:35:51;24.09;54.38
68511;SHT31;55512;50.102;19.958;2022-07-23T03:38:17;24.09;54.33
68511;SHT31;55512;50.102;19.958;2022-07-23T03:40:42;24.16;54.31
68511;SHT31;55512;50.102;19.958;2022-07-23T03:43:08;24.35;54.22
68511;SHT31;55512;50.102;19.958;2022-07-23T03:45:33;24.59;53.84
68511;SHT31;55512;50.102;19.958;2022-07-23T03:47:59;24.80;53.40
68511;SHT31;55512;50.102;19.958;2022-07-23T03:50:25;24.92;53.23
68511;SHT31;55512;50.102;19.958;2022-07-23T03:52:51;25.13;52.85
68511;SHT31;55512;50.102;19.958;2022-07-23T03:55:17;25.20;52.66
68511;SHT31;55512;50.102;19.958;2022-07-23T03:57:43;25.27;52.52
68511;SHT31;55512;50.102;19.958;2022-07-23T04:00:09;25.55;51.96
68511;SHT31;55512;50.102;19.958;2022-07-23T04:02:36;25.68;51.57
68511;SHT31;55512;50.102;19.958;2022-07-23T04:05:02;25.66;51.43
68511;SHT31;55512;50.102;19.958;2022-07-23T04:07:29;25.66;51.38
68511;SHT31;55512;50.102;19.958;2022-07-23T04:09:55;25.68;51.34
68511;SHT31;55512;50.102;19.958;2022-07-23T04:12:20;25.64;51.60
68511;SHT31;55512;50.102;19.958;2022-07-23T04:14:46;25.69;51.47
68511;SHT31;55512;50.102;19.958;2022-07-23T04:17:11;25.72;51.44
68511;SHT31;55512;50.102;19.958;2022-07-23T04:19:37;25.78;51.34
68511;SHT31;55512;50.102;19.958;2022-07-23T04:22:09;25.85;50.77
68511;SHT31;55512;50.102;19.958;2022-07-23T04:24:36;25.78;50.53
68511;SHT31;55512;50.102;19.958;2022-07-23T04:27:03;25.68;50.58
68511;SHT31;55512;50.102;19.958;2022-07-23T04:29:29;25.70;50.38
68511;SHT31;55512;50.102;19.958;2022-07-23T04:31:55;25.62;50.57
68511;SHT31;55512;50.102;19.958;2022-07-23T04:34:20;25.61;50.74
68511;SHT31;55512;50.102;19.958;2022-07-23T04:36:46;25.66;50.78
68511;SHT31;55512;50.102;19.958;2022-07-23T04:39:12;25.70;50.73
68511;SHT31;55512;50.102;19.958;2022-07-23T04:41:38;25.84;50.67
68511;SHT31;55512;50.102;19.958;2022-07-23T04:44:04;25.95;50.53
68511;SHT31;55512;50.102;19.958;2022-07-23T04:46:30;26.00;50.68
68511;SHT31;55512;50.102;19.958;2022-07-23T04:48:55;26.16;50.44
68511;SHT31;55512;50.102;19.958;2022-07-23T04:51:21;26.30;50.33
68511;SHT31;55512;50.102;19.958;2022-07-23T04:53:46;26.46;50.12
68511;SHT31;55512;50.102;19.958;2022-07-23T04:56:12;26.57;50.04
68511;SHT31;55512;50.102;19.958;2022-07-23T04:58:37;26.61;50.08
68511;SHT31;55512;50.102;19.958;2022-07-23T05:01:03;26.71;50.03
68511;SHT31;55512;50.102;19.958;2022-07-23T05:03:29;26.76;50.07
68511;SHT31;55512;50.102;19.958;2022-07-23T05:05:55;26.83;50.09
68511;SHT31;55512;50.102;19.958;2022-07-23T05:08:21;26.87;50.21
68511;SHT31;55512;50.102;19.958;2022-07-23T05:10:47;26.88;50.29
68511;SHT31;55512;50.102;19.958;2022-07-23T05:13:16;26.98;50.35
68511;SHT31;55512;50.102;19.958;2022-07-23T05:15:43;27.09;50.23
68511;SHT31;55512;50.102;19.958;2022-07-23T05:18:09;27.15;50.20
68511;SHT31;55512;50.102;19.958;2022-07-23T05:20:35;27.22;50.20
68511;SHT31;55512;50.102;19.958;2022-07-23T05:23:01;27.29;50.26
68511;SHT31;55512;50.102;19.958;2022-07-23T05:25:27;27.40;50.20
68511;SHT31;55512;50.102;19.958;2022-07-23T05:27:52;27.49;50.13
68511;SHT31;55512;50.102;19.958;2022-07-23T05:30:18;27.52;50.20
68511;SHT31;55512;50.102;19.958;2022-07-23T05:32:44;27.65;50.08
68511;SHT31;55512;50.102;19.958;2022-07-23T05:35:09;27.75;49.95
68511;SHT31;55512;50.102;19.958;2022-07-23T05:37:35;27.78;49.99
68511;SHT31;55512;50.102;19.958;2022-07-23T05:40:02;27.79;49.99
68511;SHT31;55512;50.102;19.958;2022-07-23T05:42:33;27.98;49.56
68511;SHT31;55512;50.102;19.958;2022-07-23T05:45:04;28.09;49.33
68511;SHT31;55512;50.102;19.958;2022-07-23T05:50:12;28.09;49.44
68511;SHT31;55512;50.102;19.958;2022-07-23T05:52:39;28.16;49.22
68511;SHT31;55512;50.102;19.958;2022-07-23T05:55:06;28.24;49.29
68511;SHT31;55512;50.102;19.958;2022-07-23T05:57:33;28.30;49.13
68511;SHT31;55512;50.102;19.958;2022-07-23T05:59:59;28.35;48.99
68511;SHT31;55512;50.102;19.958;2022-07-23T06:02:24;28.43;49.02
68511;SHT31;55512;50.102;19.958;2022-07-23T06:04:50;28.47;49.12
68511;SHT31;55512;50.102;19.958;2022-07-23T06:07:15;28.56;48.86
68511;SHT31;55512;50.102;19.958;2022-07-23T06:09:41;28.68;48.52
68511;SHT31;55512;50.102;19.958;2022-07-23T06:12:06;28.83;48.36
68511;SHT31;55512;50.102;19.958;2022-07-23T06:14:33;28.94;48.31
68511;SHT31;55512;50.102;19.958;2022-07-23T06:16:58;28.95;48.31
68511;SHT31;55512;50.102;19.958;2022-07-23T06:19:24;28.98;48.25
68511;SHT31;55512;50.102;19.958;2022-07-23T06:21:51;29.07;47.99
68511;SHT31;55512;50.102;19.958;2022-07-23T06:24:16;29.22;47.86
68511;SHT31;55512;50.102;19.958;2022-07-23T06:26:42;29.39;47.54
68511;SHT31;55512;50.102;19.958;2022-07-23T06:29:08;29.42;47.46
68511;SHT31;55512;50.102;19.958;2022-07-23T06:31:34;29.45;47.31
68511;SHT31;55512;50.102;19.958;2022-07-23T06:33:59;29.49;47.28
68511;SHT31;55512;50.102;19.958;2022-07-23T06:36:25;29.62;47.10
68511;SHT31;55512;50.102;19.958;2022-07-23T06:38:50;29.70;47.02
68511;SHT31;55512;50.102;19.958;2022-07-23T06:41:16;29.78;46.94
68511;SHT31;55512;50.102;19.958;2022-07-23T06:43:41;29.86;46.73
68511;SHT31;55512;50.102;19.958;2022-07-23T06:46:07;29.97;46.52
68511;SHT31;55512;50.102;19.958;2022-07-23T06:48:33;30.09;46.27
68511;SHT31;55512;50.102;19.958;2022-07-23T06:51:00;30.17;46.10
68511;SHT31;55512;50.102;19.958;2022-07-23T06:53:27;30.32;45.87
68511;SHT31;55512;50.102;19.958;2022-07-23T06:55:52;30.44;45.53
68511;SHT31;55512;50.102;19.958;2022-07-23T06:58:18;30.54;45.25
68511;SHT31;55512;50.102;19.958;2022-07-23T07:00:44;30.55;45.23
68511;SHT31;55512;50.102;19.958;2022-07-23T07:03:10;30.61;45.14
68511;SHT31;55512;50.102;19.958;2022-07-23T07:05:35;30.74;44.87
68511;SHT31;55512;50.102;19.958;2022-07-23T07:08:01;30.82;44.59
68511;SHT31;55512;50.102;19.958;2022-07-23T07:10:26;30.91;44.42
68511;SHT31;55512;50.102;19.958;2022-07-23T07:12:52;30.96;44.50
68511;SHT31;55512;50.102;19.958;2022-07-23T07:15:17;31.06;44.40
68511;SHT31;55512;50.102;19.958;2022-07-23T07:17:43;31.13;44.37
68511;SHT31;55512;50.102;19.958;2022-07-23T07:20:09;31.20;44.23
68511;SHT31;55512;50.102;19.958;2022-07-23T07:22:38;31.26;44.19
68511;SHT31;55512;50.102;19.958;2022-07-23T07:25:04;31.33;44.11
68511;SHT31;55512;50.102;19.958;2022-07-23T07:27:31;31.35;44.20
68511;SHT31;55512;50.102;19.958;2022-07-23T07:29:57;31.45;43.98
68511;SHT31;55512;50.102;19.958;2022-07-23T07:32:22;31.54;43.86
68511;SHT31;55512;50.102;19.958;2022-07-23T07:34:48;31.62;43.86
68511;SHT31;55512;50.102;19.958;2022-07-23T07:37:13;31.71;43.58
68511;SHT31;55512;50.102;19.958;2022-07-23T07:39:39;31.84;43.27
68511;SHT31;55512;50.102;19.958;2022-07-23T07:42:05;31.95;42.96
68511;SHT31;55512;50.102;19.958;2022-07-23T07:44:31;32.05;42.63
68511;SHT31;55512;50.102;19.958;2022-07-23T07:46:56;32.19;42.11
68511;SHT31;55512;50.102;19.958;2022-07-23T07:49:22;32.20;42.08
68511;SHT31;55512;50.102;19.958;2022-07-23T07:51:47;32.23;42.18
68511;SHT31;55512;50.102;19.958;2022-07-23T07:54:13;32.24;41.97
68511;SHT31;55512;50.102;19.958;2022-07-23T07:56:38;32.35;41.69
68511;SHT31;55512;50.102;19.958;2022-07-23T07:59:03;32.49;41.46
68511;SHT31;55512;50.102;19.958;2022-07-23T08:01:29;32.61;40.99
68511;SHT31;55512;50.102;19.958;2022-07-23T08:03:55;32.75;40.53
68511;SHT31;55512;50.102;19.958;2022-07-23T08:06:20;32.89;40.48
68511;SHT31;55512;50.102;19.958;2022-07-23T08:08:46;32.98;40.13
68511;SHT31;55512;50.102;19.958;2022-07-23T08:11:11;33.09;39.63
68511;SHT31;55512;50.102;19.958;2022-07-23T08:13:37;33.29;38.96
68511;SHT31;55512;50.102;19.958;2022-07-23T08:16:02;33.45;38.41
68511;SHT31;55512;50.102;19.958;2022-07-23T08:18:28;33.59;38.23
68511;SHT31;55512;50.102;19.958;2022-07-23T08:20:54;33.65;38.20
68511;SHT31;55512;50.102;19.958;2022-07-23T08:23:20;33.72;37.98
68511;SHT31;55512;50.102;19.958;2022-07-23T08:25:45;33.82;37.68
68511;SHT31;55512;50.102;19.958;2022-07-23T08:28:12;33.90;37.49
68511;SHT31;55512;50.102;19.958;2022-07-23T08:30:40;34.03;37.29
68511;SHT31;55512;50.102;19.958;2022-07-23T08:33:12;34.14;36.76
68511;SHT31;55512;50.102;19.958;2022-07-23T08:35:43;34.22;36.43
68511;SHT31;55512;50.102;19.958;2022-07-23T08:38:15;34.26;36.43
68511;SHT31;55512;50.102;19.958;2022-07-23T08:40:44;34.38;36.42
68511;SHT31;55512;50.102;19.958;2022-07-23T08:43:13;34.53;35.93
68511;SHT31;55512;50.102;19.958;2022-07-23T08:45:43;34.54;36.57
68511;SHT31;55512;50.102;19.958;2022-07-23T08:48:13;34.54;37.20
68511;SHT31;55512;50.102;19.958;2022-07-23T08:50:43;34.52;37.11
68511;SHT31;55512;50.102;19.958;2022-07-23T08:53:11;34.46;37.15
68511;SHT31;55512;50.102;19.958;2022-07-23T08:55:38;34.43;37.56
68511;SHT31;55512;50.102;19.958;2022-07-23T08:58:04;34.42;37.64
68511;SHT31;55512;50.102;19.958;2022-07-23T09:00:30;34.36;37.54
68511;SHT31;55512;50.102;19.958;2022-07-23T09:02:55;34.31;36.90
68511;SHT31;55512;50.102;19.958;2022-07-23T09:05:21;34.30;37.00
68511;SHT31;55512;50.102;19.958;2022-07-23T09:13:30;34.28;37.29
68511;SHT31;55512;50.102;19.958;2022-07-23T09:16:28;34.29;37.25
68511;SHT31;55512;50.102;19.958;2022-07-23T09:18:57;34.29;37.18
68511;SHT31;55512;50.102;19.958;2022-07-23T09:21:29;34.26;37.03
68511;SHT31;55512;50.102;19.958;2022-07-23T09:26:36;34.26;37.34
68511;SHT31;55512;50.102;19.958;2022-07-23T09:29:04;34.24;36.48
68511;SHT31;55512;50.102;19.958;2022-07-23T09:31:45;34.27;36.35
68511;SHT31;55512;50.102;19.958;2022-07-23T09:34:22;34.31;36.12
68511;SHT31;55512;50.102;19.958;2022-07-23T09:37:13;34.37;36.00
68511;SHT31;55512;50.102;19.958;2022-07-23T09:39:43;34.42;35.00
68511;SHT31;55512;50.102;19.958;2022-07-23T09:44:48;34.48;35.19
68511;SHT31;55512;50.102;19.958;2022-07-23T09:47:17;34.54;34.46
68511;SHT31;55512;50.102;19.958;2022-07-23T09:52:28;34.67;33.95
68511;SHT31;55512;50.102;19.958;2022-07-23T09:55:00;34.64;34.45
68511;SHT31;55512;50.102;19.958;2022-07-23T09:57:28;34.64;34.55
68511;SHT31;55512;50.102;19.958;2022-07-23T09:59:57;34.62;34.43
68511;SHT31;55512;50.102;19.958;2022-07-23T10:02:27;34.56;34.52
68511;SHT31;55512;50.102;19.958;2022-07-23T10:04:57;34.56;34.46
68511;SHT31;55512;50.102;19.958;2022-07-23T10:07:25;34.63;34.04
68511;SHT31;55512;50.102;19.958;2022-07-23T10:09:54;34.65;33.83
68511;SHT31;55512;50.102;19.958;2022-07-23T10:12:22;34.79;33.60
68511;SHT31;55512;50.102;19.958;2022-07-23T10:14:54;34.83;33.05
68511;SHT31;55512;50.102;19.958;2022-07-23T10:17:22;34.84;33.03
68511;SHT31;55512;50.102;19.958;2022-07-23T10:19:48;34.84;33.14
68511;SHT31;55512;50.102;19.958;2022-07-23T10:22:18;34.93;33.11
68511;SHT31;55512;50.102;19.958;2022-07-23T10:27:39;35.10;32.33
68511;SHT31;55512;50.102;19.958;2022-07-23T10:30:22;35.28;32.07
68511;SHT31;55512;50.102;19.958;2022-07-23T10:36:18;35.37;31.97
68511;SHT31;55512;50.102;19.958;2022-07-23T10:38:55;35.54;32.05
68511;SHT31;55512;50.102;19.958;2022-07-23T10:41:38;35.59;31.79
68511;SHT31;55512;50.102;19.958;2022-07-23T10:44:12;35.62;31.49
68511;SHT31;55512;50.102;19.958;2022-07-23T10:49:46;35.83;30.13
68511;SHT31;55512;50.102;19.958;2022-07-23T10:54:53;36.14;30.17
68511;SHT31;55512;50.102;19.958;2022-07-23T10:57:48;36.29;29.66
68511;SHT31;55512;50.102;19.958;2022-07-23T11:00:20;36.36;29.51
68511;SHT31;55512;50.102;19.958;2022-07-23T11:02:57;36.36;29.66
68511;SHT31;55512;50.102;19.958;2022-07-23T11:05:44;36.29;29.62
68511;SHT31;55512;50.102;19.958;2022-07-23T11:08:12;36.32;29.68
68511;SHT31;55512;50.102;19.958;2022-07-23T11:13:32;36.47;29.54
68511;SHT31;55512;50.102;19.958;2022-07-23T11:24:10;36.62;29.39
68511;SHT31;55512;50.102;19.958;2022-07-23T11:36:59;36.58;28.90
68511;SHT31;55512;50.102;19.958;2022-07-23T11:39:28;36.58;28.67
68511;SHT31;55512;50.102;19.958;2022-07-23T11:41:55;36.69;28.61
68511;SHT31;55512;50.102;19.958;2022-07-23T11:46:55;36.70;27.54
68511;SHT31;55512;50.102;19.958;2022-07-23T11:49:26;36.58;27.80
68511;SHT31;55512;50.102;19.958;2022-07-23T11:52:05;36.53;27.73
68511;SHT31;55512;50.102;19.958;2022-07-23T11:54:49;36.54;27.70
68511;SHT31;55512;50.102;19.958;2022-07-23T11:57:23;36.65;27.74
68511;SHT31;55512;50.102;19.958;2022-07-23T12:00:01;36.72;27.72
68511;SHT31;55512;50.102;19.958;2022-07-23T12:02:44;36.81;27.57
68511;SHT31;55512;50.102;19.958;2022-07-23T12:07:52;36.95;27.97
68511;SHT31;55512;50.102;19.958;2022-07-23T12:12:53;37.08;27.97
68511;SHT31;55512;50.102;19.958;2022-07-23T12:15:29;37.21;27.36
68511;SHT31;55512;50.102;19.958;2022-07-23T12:18:01;37.24;27.11
68511;SHT31;55512;50.102;19.958;2022-07-23T12:20:29;37.27;27.23
68511;SHT31;55512;50.102;19.958;2022-07-23T12:22:59;37.33;27.19
68511;SHT31;55512;50.102;19.958;2022-07-23T12:25:30;37.37;27.34
68511;SHT31;55512;50.102;19.958;2022-07-23T12:30:37;37.43;27.24
68511;SHT31;55512;50.102;19.958;2022-07-23T12:33:07;37.51;27.00
68511;SHT31;55512;50.102;19.958;2022-07-23T12:35:37;37.57;27.23
68511;SHT31;55512;50.102;19.958;2022-07-23T12:38:08;37.61;27.17
68511;SHT31;55512;50.102;19.958;2022-07-23T12:40:49;37.74;27.17
68511;SHT31;55512;50.102;19.958;2022-07-23T12:43:31;37.87;26.99
68511;SHT31;55512;50.102;19.958;2022-07-23T12:51:21;38.09;26.67
68511;SHT31;55512;50.102;19.958;2022-07-23T12:53:57;38.28;26.12
68511;SHT31;55512;50.102;19.958;2022-07-23T12:56:35;38.40;25.33
68511;SHT31;55512;50.102;19.958;2022-07-23T13:01:34;38.66;25.59
68511;SHT31;55512;50.102;19.958;2022-07-23T13:04:08;38.81;25.31
68511;SHT31;55512;50.102;19.958;2022-07-23T13:06:55;38.88;25.09
68511;SHT31;55512;50.102;19.958;2022-07-23T13:09:24;39.08;25.25
68511;SHT31;55512;50.102;19.958;2022-07-23T13:11:54;39.05;25.39
68511;SHT31;55512;50.102;19.958;2022-07-23T13:14:21;39.26;25.32
68511;SHT31;55512;50.102;19.958;2022-07-23T13:16:49;39.46;25.21
68511;SHT31;55512;50.102;19.958;2022-07-23T13:19:17;39.56;25.41
68511;SHT31;55512;50.102;19.958;2022-07-23T13:21:45;39.71;25.23
68511;SHT31;55512;50.102;19.958;2022-07-23T13:24:11;39.82;25.41
68511;SHT31;55512;50.102;19.958;2022-07-23T13:26:38;39.91;25.34
68511;SHT31;55512;50.102;19.958;2022-07-23T13:29:05;39.99;25.20
68511;SHT31;55512;50.102;19.958;2022-07-23T13:31:30;40.03;25.26
68511;SHT31;55512;50.102;19.958;2022-07-23T13:33:56;40.10;25.36
68511;SHT31;55512;50.102;19.958;2022-07-23T13:36:22;40.36;25.11
68511;SHT31;55512;50.102;19.958;2022-07-23T13:38:47;40.68;24.80
68511;SHT31;55512;50.102;19.958;2022-07-23T13:41:13;41.09;24.29
68511;SHT31;55512;50.102;19.958;2022-07-23T13:43:41;41.33;23.94
68511;SHT31;55512;50.102;19.958;2022-07-23T13:46:07;41.58;23.80
68511;SHT31;55512;50.102;19.958;2022-07-23T13:48:32;41.81;23.31
68511;SHT31;55512;50.102;19.958;2022-07-23T13:50:57;41.87;22.61
68511;SHT31;55512;50.102;19.958;2022-07-23T13:53:23;41.70;22.36
68511;SHT31;55512;50.102;19.958;2022-07-23T13:55:50;41.56;22.92
68511;SHT31;55512;50.102;19.958;2022-07-23T13:58:18;41.62;22.81
68511;SHT31;55512;50.102;19.958;2022-07-23T14:00:46;41.69;22.53
68511;SHT31;55512;50.102;19.958;2022-07-23T14:03:16;41.56;22.51
68511;SHT31;55512;50.102;19.958;2022-07-23T14:05:43;41.31;22.88
68511;SHT31;55512;50.102;19.958;2022-07-23T14:08:08;40.91;22.84
68511;SHT31;55512;50.102;19.958;2022-07-23T14:10:34;40.53;23.47
68511;SHT31;55512;50.102;19.958;2022-07-23T14:13:00;40.26;23.66
68511;SHT31;55512;50.102;19.958;2022-07-23T14:15:27;39.93;23.92
68511;SHT31;55512;50.102;19.958;2022-07-23T14:17:55;39.67;24.10
68511;SHT31;55512;50.102;19.958;2022-07-23T14:20:21;39.33;24.44
68511;SHT31;55512;50.102;19.958;2022-07-23T14:22:47;39.12;24.72
68511;SHT31;55512;50.102;19.958;2022-07-23T14:25:14;38.87;24.84
68511;SHT31;55512;50.102;19.958;2022-07-23T14:27:40;38.69;25.16
68511;SHT31;55512;50.102;19.958;2022-07-23T14:30:06;38.52;25.32
68511;SHT31;55512;50.102;19.958;2022-07-23T14:32:34;38.24;25.45
68511;SHT31;55512;50.102;19.958;2022-07-23T14:35:01;37.98;26.14
68511;SHT31;55512;50.102;19.958;2022-07-23T14:37:27;37.79;26.37
68511;SHT31;55512;50.102;19.958;2022-07-23T14:39:53;37.63;26.51
68511;SHT31;55512;50.102;19.958;2022-07-23T14:42:18;37.51;26.91
68511;SHT31;55512;50.102;19.958;2022-07-23T14:44:44;37.44;27.14
68511;SHT31;55512;50.102;19.958;2022-07-23T14:47:10;37.37;27.32
68511;SHT31;55512;50.102;19.958;2022-07-23T14:49:36;37.36;27.52
68511;SHT31;55512;50.102;19.958;2022-07-23T14:52:03;37.32;27.82
68511;SHT31;55512;50.102;19.958;2022-07-23T14:54:30;37.26;28.07
68511;SHT31;55512;50.102;19.958;2022-07-23T14:56:57;37.15;28.19
68511;SHT31;55512;50.102;19.958;2022-07-23T14:59:26;36.92;28.31
68511;SHT31;55512;50.102;19.958;2022-07-23T15:01:52;36.85;28.52
68511;SHT31;55512;50.102;19.958;2022-07-23T15:04:19;36.91;28.70
68511;SHT31;55512;50.102;19.958;2022-07-23T15:06:45;36.95;28.76
68511;SHT31;55512;50.102;19.958;2022-07-23T15:09:10;36.86;28.80
68511;SHT31;55512;50.102;19.958;2022-07-23T15:11:36;36.45;29.38
68511;SHT31;55512;50.102;19.958;2022-07-23T15:14:06;34.82;31.67
68511;SHT31;55512;50.102;19.958;2022-07-23T15:16:33;34.12;32.45
68511;SHT31;55512;50.102;19.958;2022-07-23T15:18:59;33.24;32.67
68511;SHT31;55512;50.102;19.958;2022-07-23T15:21:26;32.55;33.04
68511;SHT31;55512;50.102;19.958;2022-07-23T15:23:54;32.07;34.59
68511;SHT31;55512;50.102;19.958;2022-07-23T15:26:23;31.61;38.18
68511;SHT31;55512;50.102;19.958;2022-07-23T15:28:50;31.01;42.22
68511;SHT31;55512;50.102;19.958;2022-07-23T15:31:16;30.28;44.87
68511;SHT31;55512;50.102;19.958;2022-07-23T15:33:42;29.53;50.64
68511;SHT31;55512;50.102;19.958;2022-07-23T15:36:07;28.76;53.55
68511;SHT31;55512;50.102;19.958;2022-07-23T15:38:34;28.21;52.90
68511;SHT31;55512;50.102;19.958;2022-07-23T15:41:00;27.89;53.10
68511;SHT31;55512;50.102;19.958;2022-07-23T15:43:25;27.50;52.80
68511;SHT31;55512;50.102;19.958;2022-07-23T15:45:51;27.27;53.52
68511;SHT31;55512;50.102;19.958;2022-07-23T15:48:18;27.19;53.70
68511;SHT31;55512;50.102;19.958;2022-07-23T15:50:45;27.05;53.81
68511;SHT31;55512;50.102;19.958;2022-07-23T15:53:12;27.02;54.63
68511;SHT31;55512;50.102;19.958;2022-07-23T15:55:38;27.04;54.95
68511;SHT31;55512;50.102;19.958;2022-07-23T15:58:05;27.07;55.37
68511;SHT31;55512;50.102;19.958;2022-07-23T16:00:31;27.15;56.22
68511;SHT31;55512;50.102;19.958;2022-07-23T16:02:58;27.23;56.76
68511;SHT31;55512;50.102;19.958;2022-07-23T16:05:23;27.28;57.62
68511;SHT31;55512;50.102;19.958;2022-07-23T16:07:49;27.37;58.45
68511;SHT31;55512;50.102;19.958;2022-07-23T16:10:14;27.42;58.92
68511;SHT31;55512;50.102;19.958;2022-07-23T16:12:40;27.45;58.96
68511;SHT31;55512;50.102;19.958;2022-07-23T16:15:06;27.47;58.86
68511;SHT31;55512;50.102;19.958;2022-07-23T16:17:32;27.47;58.59
68511;SHT31;55512;50.102;19.958;2022-07-23T16:19:58;27.46;58.36
68511;SHT31;55512;50.102;19.958;2022-07-23T16:22:24;27.46;58.02
68511;SHT31;55512;50.102;19.958;2022-07-23T16:24:49;27.45;58.21